SALMON LANDING AK US NWS current weather conditions

sailwx.info

Wind from 120 at 13 knots gusting 20

Air temperature 6.4° C
Dewpoint 4.3° C

Last reported at 2020-Jan-22 13:03 UTC.
Time now 2020-Jan-22 13:38 UTC

Location: N 55°20' W 131°39'.
View on Google Maps.

See reports from other nearby stations

  
Tides and Currents Weather Stations Pressure Air Temp Water Temp Dewpoint Dewpoint Depression Visibility Wind Speed Wind Dir Waves Ship Positions
date/time (UTC)wind fromknots sea level pressurealtimeterstation pressurevisibilityair tempwater tempwave heightnotes
2020-Jan-22 13:03 120 13 gusting 20 6.4
2020-Jan-22 12:53 120 14 gusting 20 6.4
2020-Jan-22 12:43 130 15 gusting 24 6.4
2020-Jan-22 12:33 120 9 gusting 20 5.9
2020-Jan-22 12:23 130 13 gusting 20 6.3
2020-Jan-22 12:13 130 13 gusting 20 6.4
2020-Jan-22 12:03 120 14 gusting 21 6.6
2020-Jan-22 11:53 120 14 gusting 22 6.6
2020-Jan-22 11:43 120 14 gusting 24 6.5
2020-Jan-22 11:33 120 13 gusting 21 6.4
2020-Jan-22 11:23 120 14 gusting 24 6.5
2020-Jan-22 11:13 120 13 gusting 20 6.4
2020-Jan-22 11:03 120 15 gusting 24 6.3
2020-Jan-22 10:53 130 15 gusting 24 6.4
2020-Jan-22 10:43 130 13 gusting 20 6.3
2020-Jan-22 10:33 130 13 gusting 18 6.4
2020-Jan-22 10:23 130 12 gusting 20 6.5
2020-Jan-22 10:13 130 11 gusting 17 6.4
2020-Jan-22 10:03 120 13 gusting 21 6.2
2020-Jan-22 09:53 130 12 gusting 19 6.2
2020-Jan-22 09:43 120 11 gusting 19 6.3
2020-Jan-22 09:33 120 13 gusting 20 6.3
2020-Jan-22 09:23 120 13 gusting 20 6.2
2020-Jan-22 09:13 120 8 gusting 15 6.2
2020-Jan-22 09:03 120 9 gusting 17 6.2
2020-Jan-22 08:53 120 8 gusting 17 6.1
2020-Jan-22 08:43 120 12 gusting 19 6.3
2020-Jan-22 08:33 120 12 gusting 18 6.3
2020-Jan-22 08:23 130 13 gusting 19 6.4
2020-Jan-22 08:13 120 11 gusting 19 6.2
2020-Jan-22 08:03 120 9 gusting 17 6.2
2020-Jan-22 07:53 120 11 gusting 20 6.1
2020-Jan-22 07:43 120 9 gusting 18 6.0
2020-Jan-22 07:33 130 9 gusting 20 5.5
2020-Jan-22 07:23 090 2 gusting 8 4.2
2020-Jan-22 07:13 070 4 gusting 6 4.0
2020-Jan-22 07:03 080 5 gusting 7 4.0
2020-Jan-22 06:53 080 4 gusting 7 4.1
2020-Jan-22 06:43 080 4 gusting 6 4.1
2020-Jan-22 06:33 070 5 gusting 7 4.0
2020-Jan-22 06:23 070 4 gusting 6 4.2
2020-Jan-22 06:13 080 4 gusting 7 4.0
2020-Jan-22 06:03 070 4 gusting 6 3.9
2020-Jan-22 05:53 060 2 gusting 6 4.3
2020-Jan-22 05:43 070 4 gusting 7 4.3
2020-Jan-22 05:33 090 5 gusting 7 4.0
2020-Jan-22 05:23 070 4 gusting 6 4.0
2020-Jan-22 05:13 070 4 gusting 6 4.1
2020-Jan-22 05:03 080 4 gusting 6 4.4
2020-Jan-22 04:53 090 5 gusting 7 4.2
2020-Jan-22 04:43 070 4 gusting 7 4.3
2020-Jan-22 04:33 080 5 gusting 6 4.3
2020-Jan-22 04:23 090 4 gusting 6 4.2
2020-Jan-22 04:13 070 5 gusting 7 4.5
2020-Jan-22 04:03 090 5 gusting 7 4.7
2020-Jan-22 03:53 130 6 gusting 12 5.7
2020-Jan-22 03:43 130 7 gusting 15 5.9
2020-Jan-22 03:33 160 7 gusting 13 6.0
2020-Jan-22 03:23 140 7 gusting 14 6.3
2020-Jan-22 03:13 130 9 gusting 19 6.5
2020-Jan-22 03:03 120 9 gusting 18 6.5
2020-Jan-22 02:53 120 9 gusting 18 6.6
2020-Jan-22 02:43 120 11 gusting 19 6.7
2020-Jan-22 02:33 130 8 gusting 14 6.5
2020-Jan-22 02:23 130 9 gusting 19 6.5
2020-Jan-22 02:13 120 11 gusting 17 6.6
2020-Jan-22 02:03 130 12 gusting 19 6.5
2020-Jan-22 01:53 130 13 gusting 20 6.7
2020-Jan-22 01:43 120 13 gusting 22 6.7
2020-Jan-22 01:33 130 13 gusting 22 6.6
2020-Jan-22 01:23 140 13 gusting 21 6.6
2020-Jan-22 01:13 140 11 gusting 18 6.5
2020-Jan-22 01:03 130 11 gusting 21 6.6
2020-Jan-22 00:53 130 12 gusting 19 6.6
2020-Jan-22 00:43 120 13 gusting 21 6.9
2020-Jan-22 00:33 130 12 gusting 20 6.8
2020-Jan-22 00:23 120 13 gusting 21 6.9
2020-Jan-22 00:13 120 11 gusting 20 6.9
2020-Jan-21 23:53 120 13 gusting 22 6.7
2020-Jan-21 23:43 120 8 gusting 25 5.8
2020-Jan-21 23:33 100 4 gusting 7 5.2
2020-Jan-21 23:23 120 5 gusting 13 5.4
2020-Jan-21 23:13 070 1 gusting 6 5.1
2020-Jan-21 23:03 040 2 gusting 7 5.0
2020-Jan-21 22:53 350 2 gusting 6 5.0
2020-Jan-21 22:43 300 4 gusting 7 5.1
2020-Jan-21 22:33 290 1 gusting 6 5.0
2020-Jan-21 22:23 310 2 gusting 6 4.8
2020-Jan-21 22:13 320 2 gusting 4 4.8
2020-Jan-21 22:03 340 1 gusting 4 4.9
2020-Jan-21 21:53 280 2 gusting 6 4.7
2020-Jan-21 21:43 310 2 gusting 4 4.8
2020-Jan-21 21:33 230 1 gusting 4 5.0
2020-Jan-21 21:23 350 1 gusting 4 4.8
2020-Jan-21 21:13 050 1 gusting 5 4.5
2020-Jan-21 21:03 020 1 gusting 5 4.5
2020-Jan-21 20:53 050 1 gusting 2 4.5
2020-Jan-21 20:43 020 1 gusting 4 4.7
2020-Jan-21 20:33 020 1 gusting 5 4.4
2020-Jan-21 20:23 050 1 gusting 4 4.3
2020-Jan-21 20:13 010 2 gusting 5 4.1
2020-Jan-21 20:03 040 1 gusting 5 4.2
2020-Jan-21 19:53 190 1 gusting 2 3.9
2020-Jan-21 19:43 150 1 gusting 4 3.9
2020-Jan-21 19:33 300 1 gusting 4 3.7
2020-Jan-21 19:23 080 1 gusting 4 3.8
2020-Jan-21 19:13 090 1 gusting 2 3.8
2020-Jan-21 19:03 030 1 gusting 4 3.7
2020-Jan-21 18:53 130 2 gusting 6 3.5
2020-Jan-21 18:43 110 1 gusting 4 3.6
2020-Jan-21 18:33 040 1 gusting 4 3.4
2020-Jan-21 18:23 340 1 gusting 4 3.3
2020-Jan-21 18:13 330 2 gusting 6 3.1
2020-Jan-21 18:03 320 4 gusting 6 3.1
2020-Jan-21 17:53 320 4 gusting 6 3.0
2020-Jan-21 17:43 300 4 gusting 7 3.0
2020-Jan-21 17:33 250 2 gusting 6 2.8
2020-Jan-21 17:23 330 2 gusting 6 2.5
2020-Jan-21 17:13 330 4 gusting 8 2.3
2020-Jan-21 17:03 050 2 gusting 6 2.2
2020-Jan-21 16:53 060 2 gusting 6 1.8
2020-Jan-21 16:43 060 1 gusting 5 1.7
2020-Jan-21 16:33 080 0 gusting 1 1.6
2020-Jan-21 16:23 070 1 gusting 5 1.4
2020-Jan-21 16:13 060 1 gusting 2 1.4
2020-Jan-21 16:03 080 1 gusting 4 1.3
2020-Jan-21 15:53 090 1 gusting 5 1.4
2020-Jan-21 15:43 080 1 gusting 5 1.2
2020-Jan-21 15:33 040 1 gusting 4 1.5
2020-Jan-21 15:23 030 2 gusting 5 1.2
2020-Jan-21 15:13 070 1 gusting 4 1.4
2020-Jan-21 15:03 050 1 gusting 4 1.5
2020-Jan-21 14:53 030 1 gusting 4 1.4
2020-Jan-21 14:43 040 1 gusting 5 1.6
2020-Jan-21 14:33 360 1 gusting 4 1.9
2020-Jan-21 14:23 050 2 gusting 5 1.7
2020-Jan-21 14:13 010 2 gusting 5 1.9
2020-Jan-21 14:03 010 2 gusting 5 2.0
2020-Jan-21 13:53 030 1 gusting 4 2.2
2020-Jan-21 13:43 050 2 gusting 6 2.0
2020-Jan-21 13:33 360 1 gusting 4 2.4
2020-Jan-21 13:23 330 2 gusting 5 2.5
2020-Jan-21 13:13 020 2 gusting 5 2.2
2020-Jan-21 13:03 050 2 gusting 5 2.4
2020-Jan-21 12:53 070 2 gusting 5 2.5
2020-Jan-21 12:43 010 1 gusting 5 2.7
2020-Jan-21 12:33 060 1 gusting 5 2.6
2020-Jan-21 12:23 040 2 gusting 5 2.7
2020-Jan-21 12:13 330 1 gusting 6 3.0
2020-Jan-21 12:03 060 1 gusting 4 3.0
2020-Jan-21 11:53 040 2 gusting 7 3.0
2020-Jan-21 11:43 010 4 gusting 7 2.7
2020-Jan-21 11:33 350 2 gusting 7 3.1
2020-Jan-21 11:23 290 2 gusting 6 2.8
2020-Jan-21 11:13 020 2 gusting 6 2.7
2020-Jan-21 11:03 360 2 gusting 5 3.1
2020-Jan-21 10:53 030 1 gusting 4 3.1
2020-Jan-21 10:43 040 1 gusting 4 3.0
2020-Jan-21 10:33 020 1 gusting 6 3.0
2020-Jan-21 10:23 290 2 gusting 5 3.1
2020-Jan-21 10:13 330 1 gusting 5 3.2
2020-Jan-21 10:03 310 4 gusting 8 3.3
2020-Jan-21 09:53 310 4 gusting 6 3.3
2020-Jan-21 09:43 020 2 gusting 6 3.5
2020-Jan-21 09:33 340 2 gusting 6 3.5
2020-Jan-21 09:23 340 2 gusting 5 3.4
2020-Jan-21 09:13 340 2 gusting 7 3.1
2020-Jan-21 09:03 020 2 gusting 6 3.0
2020-Jan-21 08:53 010 4 gusting 8 2.8
2020-Jan-21 08:43 020 4 gusting 6 2.7
2020-Jan-21 08:33 080 1 gusting 4 2.8
2020-Jan-21 08:23 100 0 gusting 2 3.0
2020-Jan-21 08:13 340 2 gusting 6 3.2
2020-Jan-21 08:03 240 2 gusting 6 3.3
2020-Jan-21 07:53 020 2 gusting 5 3.4
2020-Jan-21 07:43 020 1 gusting 5 3.0
2020-Jan-21 07:33 020 4 gusting 7 3.0
2020-Jan-21 07:23 030 2 gusting 6 3.3
2020-Jan-21 07:13 040 2 gusting 6 3.4
2020-Jan-21 07:03 350 2 gusting 6 3.4
2020-Jan-21 06:53 360 1 gusting 4 3.3
2020-Jan-21 06:43 030 2 gusting 5 3.3
2020-Jan-21 06:33 350 1 gusting 4 3.4
2020-Jan-21 06:23 330 1 gusting 4 3.5
2020-Jan-21 06:13 040 0 gusting 2 3.5
2020-Jan-21 06:03 050 1 gusting 5 3.4
2020-Jan-21 05:53 030 1 gusting 2 3.7
2020-Jan-21 05:43 020 0 gusting 2 3.7
2020-Jan-21 05:33 340 1 gusting 4 3.8
2020-Jan-21 05:23 050 1 gusting 4 3.9
2020-Jan-21 05:13 040 1 gusting 2 4.1
2020-Jan-21 05:03 340 1 gusting 2 4.2
2020-Jan-21 04:53 040 1 gusting 4 3.9
2020-Jan-21 04:43 020 1 gusting 5 3.9
2020-Jan-21 04:33 040 1 gusting 5 4.0
2020-Jan-21 04:23 010 1 gusting 5 4.0
2020-Jan-21 04:13 040 1 gusting 5 3.9
2020-Jan-21 04:03 060 2 gusting 5 3.8
2020-Jan-21 03:53 040 1 gusting 4 4.0
2020-Jan-21 03:43 070 2 gusting 5 3.9
2020-Jan-21 03:33 010 1 gusting 5 4.0
2020-Jan-21 03:23 050 1 gusting 4 4.1
2020-Jan-21 03:13 030 2 gusting 6 4.0
2020-Jan-21 03:03 050 2 gusting 5 3.8
2020-Jan-21 02:53 080 4 gusting 6 3.6
2020-Jan-21 02:43 080 4 gusting 7 3.8
2020-Jan-21 02:33 070 5 gusting 7 3.9
2020-Jan-21 02:23 080 6 gusting 11 3.8
2020-Jan-21 02:13 080 6 gusting 9 3.9
2020-Jan-21 02:03 100 6 gusting 9 4.4
2020-Jan-21 01:53 080 5 gusting 8 4.0
2020-Jan-21 01:43 060 2 gusting 6 4.2
2020-Jan-21 01:33 070 2 gusting 6 4.3
2020-Jan-21 01:23 070 2 gusting 5 4.3
2020-Jan-21 01:13 030 2 gusting 5 4.5
2020-Jan-21 01:03 060 4 gusting 6 4.2
2020-Jan-21 00:53 070 4 gusting 6 4.1
2020-Jan-21 00:43 090 4 gusting 7 4.6
2020-Jan-21 00:33 110 2 gusting 9 4.3
2020-Jan-21 00:23 070 2 gusting 6 4.2
2020-Jan-21 00:13 090 2 gusting 6 4.2
2020-Jan-20 23:53 050 1 gusting 5 4.1
2020-Jan-20 23:43 100 4 gusting 12 4.5
2020-Jan-20 23:33 260 1 gusting 8 4.3
2020-Jan-20 23:23 080 2 gusting 6 3.9
2020-Jan-20 23:13 080 5 gusting 8 4.1
2020-Jan-20 23:03 040 2 gusting 5 4.4
2020-Jan-20 22:53 050 1 gusting 4 4.2
2020-Jan-20 22:43 070 2 gusting 6 4.0
2020-Jan-20 22:33 040 1 gusting 6 4.2
2020-Jan-20 22:23 310 1 gusting 4 4.1
2020-Jan-20 22:13 310 1 gusting 5 4.0
2020-Jan-20 22:03 070 1 gusting 5 3.9
2020-Jan-20 21:53 060 1 gusting 4 3.9
2020-Jan-20 21:43 070 2 gusting 4 3.7
2020-Jan-20 21:33 070 2 gusting 5 3.9
2020-Jan-20 21:23 060 2 gusting 4 3.8
2020-Jan-20 21:13 080 2 gusting 5 3.7
2020-Jan-20 21:03 070 1 gusting 4 4.1
2020-Jan-20 20:53 060 1 gusting 2 4.0
2020-Jan-20 20:43 080 4 gusting 6 3.4
2020-Jan-20 20:33 090 4 gusting 6 3.4
2020-Jan-20 20:23 060 1 gusting 4 3.5
2020-Jan-20 20:13 080 1 gusting 4 3.5
2020-Jan-20 20:03 080 0 gusting 2 3.7
2020-Jan-20 19:53 050 1 gusting 5 3.6
2020-Jan-20 19:43 070 0 gusting 1 3.3
2020-Jan-20 19:33 070 1 gusting 4 3.0
2020-Jan-20 19:23 070 2 gusting 5 3.0
2020-Jan-20 19:13 060 1 gusting 2 3.2
2020-Jan-20 19:03 070 0 gusting 2 2.9
2020-Jan-20 18:53 080 1 gusting 5 2.6
2020-Jan-20 18:43 080 2 gusting 5 2.5
2020-Jan-20 18:33 070 1 gusting 4 2.7
2020-Jan-20 18:23 070 1 gusting 4 2.5
2020-Jan-20 18:13 070 1 gusting 2 2.6
2020-Jan-20 18:03 050 1 gusting 2 2.7
2020-Jan-20 17:53 050 1 gusting 2 2.5
2020-Jan-20 17:43 070 1 gusting 4 2.3
2020-Jan-20 17:33 080 2 gusting 6 2.2
2020-Jan-20 17:23 080 2 gusting 4 2.2
2020-Jan-20 17:13 070 2 gusting 6 2.1
2020-Jan-20 17:03 070 2 gusting 6 2.4
2020-Jan-20 16:53 070 2 gusting 6 2.2
2020-Jan-20 16:43 080 2 gusting 5 2.1
2020-Jan-20 16:33 080 2 gusting 6 2.2
2020-Jan-20 16:23 070 2 gusting 5 2.3
2020-Jan-20 16:13 060 2 gusting 4 2.3
2020-Jan-20 16:03 060 1 gusting 4 2.4
2020-Jan-20 15:53 030 1 gusting 4 2.9
2020-Jan-20 15:43 050 1 gusting 2 3.0
2020-Jan-20 15:33 060 1 gusting 1 2.9
2020-Jan-20 15:23 020 1 gusting 4 3.0
2020-Jan-20 15:13 050 1 gusting 2 3.1
2020-Jan-20 15:03 030 0 gusting 2 3.3
2020-Jan-20 14:53 340 2 gusting 5 3.2
2020-Jan-20 14:43 010 1 gusting 2 3.2
2020-Jan-20 14:33 020 1 gusting 4 3.2
2020-Jan-20 14:23 350 2 gusting 6 3.2
2020-Jan-20 14:13 330 4 gusting 8 3.1
2020-Jan-20 14:03 350 2 gusting 6 3.2
2020-Jan-20 13:53 360 1 gusting 6 3.3
2020-Jan-20 13:43 020 1 gusting 5 3.4
2020-Jan-20 13:33 020 2 gusting 5 3.3
2020-Jan-20 13:23 060 1 gusting 2 3.4
2020-Jan-20 13:13 350 1 gusting 5 3.4
2020-Jan-20 13:03 020 2 gusting 5 3.3